sensor_id;sensor_type;location;lat;lon;timestamp;pressure;altitude;pressure_sealevel;temperature;humidity
23253;BME280;11795;47.054;15.408;2023-02-12T00:00:01;98820;;;1.5;65.1
23253;BME280;11795;47.054;15.408;2023-02-12T00:02:00;98810;;;1.6;64.8
23253;BME280;11795;47.054;15.408;2023-02-12T00:04:00;98820;;;1.5;65.2
23253;BME280;11795;47.054;15.408;2023-02-12T00:06:01;98820;;;1.7;64.8
23253;BME280;11795;47.054;15.408;2023-02-12T00:08:00;98830;;;1.6;65.0
23253;BME280;11795;47.054;15.408;2023-02-12T00:10:00;98830;;;1.5;65.4
23253;BME280;11795;47.054;15.408;2023-02-12T00:12:00;98830;;;1.6;65.1
23253;BME280;11795;47.054;15.408;2023-02-12T00:14:01;98820;;;1.5;65.4
23253;BME280;11795;47.054;15.408;2023-02-12T00:16:03;98820;;;1.7;65.0
23253;BME280;11795;47.054;15.408;2023-02-12T00:18:00;98830;;;1.6;65.3
23253;BME280;11795;47.054;15.408;2023-02-12T00:20:00;98830;;;1.5;65.4
23253;BME280;11795;47.054;15.408;2023-02-12T00:22:00;98830;;;1.6;65.0
23253;BME280;11795;47.054;15.408;2023-02-12T00:24:00;98830;;;1.5;65.4
23253;BME280;11795;47.054;15.408;2023-02-12T00:26:03;98820;;;1.7;64.9
23253;BME280;11795;47.054;15.408;2023-02-12T00:28:00;98820;;;1.6;65.3
23253;BME280;11795;47.054;15.408;2023-02-12T00:30:00;98820;;;1.5;65.5
23253;BME280;11795;47.054;15.408;2023-02-12T00:32:00;98830;;;1.6;65.1
23253;BME280;11795;47.054;15.408;2023-02-12T00:34:00;98830;;;1.5;65.4
23253;BME280;11795;47.054;15.408;2023-02-12T00:36:00;98830;;;1.7;64.9
23253;BME280;11795;47.054;15.408;2023-02-12T00:38:00;98830;;;1.6;65.3
23253;BME280;11795;47.054;15.408;2023-02-12T00:40:00;98830;;;1.5;65.6
23253;BME280;11795;47.054;15.408;2023-02-12T00:42:00;98830;;;1.6;65.3
23253;BME280;11795;47.054;15.408;2023-02-12T00:44:00;98840;;;1.6;65.5
23253;BME280;11795;47.054;15.408;2023-02-12T00:46:00;98830;;;1.8;64.9
23253;BME280;11795;47.054;15.408;2023-02-12T00:48:00;98830;;;1.6;65.2
23253;BME280;11795;47.054;15.408;2023-02-12T00:50:00;98830;;;1.5;65.6
23253;BME280;11795;47.054;15.408;2023-02-12T00:52:01;98840;;;1.6;65.3
23253;BME280;11795;47.054;15.408;2023-02-12T00:54:00;98830;;;1.5;65.8
23253;BME280;11795;47.054;15.408;2023-02-12T00:56:00;98830;;;1.7;65.3
23253;BME280;11795;47.054;15.408;2023-02-12T00:58:00;98840;;;1.6;65.5
23253;BME280;11795;47.054;15.408;2023-02-12T01:00:00;98830;;;1.5;65.8
23253;BME280;11795;47.054;15.408;2023-02-12T01:02:00;98840;;;1.6;65.7
23253;BME280;11795;47.054;15.408;2023-02-12T01:04:00;98860;;;1.6;65.8
23253;BME280;11795;47.054;15.408;2023-02-12T01:06:00;98850;;;1.6;66.2
23253;BME280;11795;47.054;15.408;2023-02-12T01:08:00;98870;;;1.5;66.6
23253;BME280;11795;47.054;15.408;2023-02-12T01:10:00;98870;;;1.4;66.8
23253;BME280;11795;47.054;15.408;2023-02-12T01:12:01;98870;;;1.6;66.4
23253;BME280;11795;47.054;15.408;2023-02-12T01:14:00;98860;;;1.5;66.6
23253;BME280;11795;47.054;15.408;2023-02-12T01:16:03;98860;;;1.7;66.0
23253;BME280;11795;47.054;15.408;2023-02-12T01:18:00;98850;;;1.6;66.1
23253;BME280;11795;47.054;15.408;2023-02-12T01:20:00;98840;;;1.6;66.3
23253;BME280;11795;47.054;15.408;2023-02-12T01:22:00;98840;;;1.7;65.8
23253;BME280;11795;47.054;15.408;2023-02-12T01:24:01;98840;;;1.6;66.2
23253;BME280;11795;47.054;15.408;2023-02-12T01:26:00;98850;;;1.8;65.8
23253;BME280;11795;47.054;15.408;2023-02-12T01:28:00;98850;;;1.6;66.2
23253;BME280;11795;47.054;15.408;2023-02-12T01:30:00;98860;;;1.6;66.3
23253;BME280;11795;47.054;15.408;2023-02-12T01:32:00;98850;;;1.7;65.8
23253;BME280;11795;47.054;15.408;2023-02-12T01:34:00;98850;;;1.6;66.2
23253;BME280;11795;47.054;15.408;2023-02-12T01:36:00;98850;;;1.8;65.7
23253;BME280;11795;47.054;15.408;2023-02-12T01:38:00;98850;;;1.7;66.0
23253;BME280;11795;47.054;15.408;2023-02-12T01:40:00;98850;;;1.6;66.2
23253;BME280;11795;47.054;15.408;2023-02-12T01:42:01;98850;;;1.8;65.7
23253;BME280;11795;47.054;15.408;2023-02-12T01:44:11;98860;;;1.7;66.1
23253;BME280;11795;47.054;15.408;2023-02-12T01:46:01;98850;;;1.9;65.5
23253;BME280;11795;47.054;15.408;2023-02-12T01:48:00;98850;;;1.7;65.8
23253;BME280;11795;47.054;15.408;2023-02-12T01:50:00;98850;;;1.7;66.1
23253;BME280;11795;47.054;15.408;2023-02-12T01:52:05;98840;;;1.7;65.9
23253;BME280;11795;47.054;15.408;2023-02-12T01:54:03;98830;;;1.6;66.4
23253;BME280;11795;47.054;15.408;2023-02-12T01:56:01;98830;;;1.8;65.9
23253;BME280;11795;47.054;15.408;2023-02-12T01:58:01;98830;;;1.7;66.4
23253;BME280;11795;47.054;15.408;2023-02-12T02:00:03;98830;;;1.6;66.4
23253;BME280;11795;47.054;15.408;2023-02-12T02:02:00;98820;;;1.8;66.1
23253;BME280;11795;47.054;15.408;2023-02-12T02:04:04;98830;;;1.7;66.4
23253;BME280;11795;47.054;15.408;2023-02-12T02:06:05;98820;;;1.8;66.2
23253;BME280;11795;47.054;15.408;2023-02-12T02:08:00;98830;;;1.7;66.3
23253;BME280;11795;47.054;15.408;2023-02-12T02:10:00;98840;;;1.7;66.4
23253;BME280;11795;47.054;15.408;2023-02-12T02:12:10;98840;;;1.8;66.1
23253;BME280;11795;47.054;15.408;2023-02-12T02:14:10;98840;;;1.7;66.3
23253;BME280;11795;47.054;15.408;2023-02-12T02:16:08;98840;;;1.9;65.9
23253;BME280;11795;47.054;15.408;2023-02-12T02:18:04;98840;;;1.7;66.3
23253;BME280;11795;47.054;15.408;2023-02-12T02:22:14;98830;;;1.8;66.1
23253;BME280;11795;47.054;15.408;2023-02-12T02:28:10;98840;;;1.6;67.1
23253;BME280;11795;47.054;15.408;2023-02-12T02:32:02;98850;;;1.7;67.1
23253;BME280;11795;47.054;15.408;2023-02-12T02:34:07;98840;;;1.6;67.2
23253;BME280;11795;47.054;15.408;2023-02-12T02:36:12;98850;;;1.9;66.5
23253;BME280;11795;47.054;15.408;2023-02-12T02:38:08;98860;;;1.7;66.9
23253;BME280;11795;47.054;15.408;2023-02-12T02:40:06;98870;;;1.6;67.0
23253;BME280;11795;47.054;15.408;2023-02-12T02:42:03;98870;;;1.8;66.5
23253;BME280;11795;47.054;15.408;2023-02-12T02:44:03;98880;;;1.6;67.3
23253;BME280;11795;47.054;15.408;2023-02-12T02:46:04;98870;;;1.8;66.7
23253;BME280;11795;47.054;15.408;2023-02-12T02:48:03;98860;;;1.7;66.9
23253;BME280;11795;47.054;15.408;2023-02-12T02:50:03;98860;;;1.6;67.1
23253;BME280;11795;47.054;15.408;2023-02-12T02:52:04;98860;;;1.7;66.6
23253;BME280;11795;47.054;15.408;2023-02-12T02:54:04;98860;;;1.6;66.9
23253;BME280;11795;47.054;15.408;2023-02-12T02:56:02;98860;;;1.8;66.5
23253;BME280;11795;47.054;15.408;2023-02-12T02:58:05;98860;;;1.6;66.8
23253;BME280;11795;47.054;15.408;2023-02-12T03:00:08;98870;;;1.5;67.1
23253;BME280;11795;47.054;15.408;2023-02-12T03:02:06;98870;;;1.6;66.7
23253;BME280;11795;47.054;15.408;2023-02-12T03:04:03;98870;;;1.5;67.3
23253;BME280;11795;47.054;15.408;2023-02-12T03:06:04;98880;;;1.7;67.0
23253;BME280;11795;47.054;15.408;2023-02-12T03:08:04;98880;;;1.5;67.5
23253;BME280;11795;47.054;15.408;2023-02-12T03:10:03;98870;;;1.4;68.0
23253;BME280;11795;47.054;15.408;2023-02-12T03:12:04;98860;;;1.6;67.4
23253;BME280;11795;47.054;15.408;2023-02-12T03:14:03;98860;;;1.5;67.6
23253;BME280;11795;47.054;15.408;2023-02-12T03:16:04;98860;;;1.7;67.1
23253;BME280;11795;47.054;15.408;2023-02-12T03:18:04;98860;;;1.5;67.4
23253;BME280;11795;47.054;15.408;2023-02-12T03:20:06;98870;;;1.5;67.6
23253;BME280;11795;47.054;15.408;2023-02-12T03:22:03;98870;;;1.6;67.0
23253;BME280;11795;47.054;15.408;2023-02-12T03:24:06;98880;;;1.5;67.4
23253;BME280;11795;47.054;15.408;2023-02-12T03:26:05;98880;;;1.7;66.9
23253;BME280;11795;47.054;15.408;2023-02-12T03:28:03;98880;;;1.6;67.0
23253;BME280;11795;47.054;15.408;2023-02-12T03:30:01;98880;;;1.4;67.4
23253;BME280;11795;47.054;15.408;2023-02-12T03:32:11;98880;;;1.5;67.1
23253;BME280;11795;47.054;15.408;2023-02-12T03:34:06;98870;;;1.4;67.5
23253;BME280;11795;47.054;15.408;2023-02-12T03:36:06;98860;;;1.6;67.1
23253;BME280;11795;47.054;15.408;2023-02-12T03:38:04;98860;;;1.4;67.5
23253;BME280;11795;47.054;15.408;2023-02-12T03:40:07;98870;;;1.3;67.9
23253;BME280;11795;47.054;15.408;2023-02-12T03:42:04;98880;;;1.4;67.5
23253;BME280;11795;47.054;15.408;2023-02-12T03:44:04;98890;;;1.3;67.9
23253;BME280;11795;47.054;15.408;2023-02-12T03:46:06;98880;;;1.5;67.5
23253;BME280;11795;47.054;15.408;2023-02-12T03:48:05;98890;;;1.3;68.2
23253;BME280;11795;47.054;15.408;2023-02-12T03:50:06;98890;;;1.3;68.5
23253;BME280;11795;47.054;15.408;2023-02-12T03:52:02;98890;;;1.4;68.0
23253;BME280;11795;47.054;15.408;2023-02-12T03:54:01;98890;;;1.3;68.3
23253;BME280;11795;47.054;15.408;2023-02-12T03:56:04;98900;;;1.4;68.3
23253;BME280;11795;47.054;15.408;2023-02-12T03:58:01;98900;;;1.1;69.2
23253;BME280;11795;47.054;15.408;2023-02-12T04:00:06;98900;;;1.1;69.2
23253;BME280;11795;47.054;15.408;2023-02-12T04:02:00;98910;;;1.3;68.4
23253;BME280;11795;47.054;15.408;2023-02-12T04:04:02;98910;;;1.2;68.6
23253;BME280;11795;47.054;15.408;2023-02-12T04:06:00;98910;;;1.3;68.2
23253;BME280;11795;47.054;15.408;2023-02-12T04:08:09;98920;;;1.2;68.5
23253;BME280;11795;47.054;15.408;2023-02-12T04:10:00;98930;;;1.2;68.6
23253;BME280;11795;47.054;15.408;2023-02-12T04:12:11;98920;;;1.3;67.9
23253;BME280;11795;47.054;15.408;2023-02-12T04:14:12;98930;;;1.1;68.4
23253;BME280;11795;47.054;15.408;2023-02-12T04:16:10;98920;;;1.2;68.0
23253;BME280;11795;47.054;15.408;2023-02-12T04:18:05;98920;;;1.1;68.4
23253;BME280;11795;47.054;15.408;2023-02-12T04:20:06;98920;;;1.0;68.5
23253;BME280;11795;47.054;15.408;2023-02-12T04:22:13;98920;;;1.1;68.0
23253;BME280;11795;47.054;15.408;2023-02-12T04:24:05;98930;;;0.9;68.7
23253;BME280;11795;47.054;15.408;2023-02-12T04:26:08;98920;;;1.1;68.4
23253;BME280;11795;47.054;15.408;2023-02-12T04:28:07;98910;;;0.9;68.7
23253;BME280;11795;47.054;15.408;2023-02-12T04:30:05;98910;;;0.8;69.1
23253;BME280;11795;47.054;15.408;2023-02-12T04:32:05;98910;;;0.9;68.8
23253;BME280;11795;47.054;15.408;2023-02-12T04:34:07;98900;;;0.8;69.2
23253;BME280;11795;47.054;15.408;2023-02-12T04:36:02;98910;;;1.0;68.7
23253;BME280;11795;47.054;15.408;2023-02-12T04:38:06;98910;;;0.8;68.9
23253;BME280;11795;47.054;15.408;2023-02-12T04:40:02;98910;;;0.7;69.6
23253;BME280;11795;47.054;15.408;2023-02-12T04:42:01;98910;;;0.7;69.8
23253;BME280;11795;47.054;15.408;2023-02-12T04:44:12;98910;;;0.6;70.0
23253;BME280;11795;47.054;15.408;2023-02-12T04:46:00;98920;;;0.7;70.4
23253;BME280;11795;47.054;15.408;2023-02-12T04:48:01;98920;;;0.6;70.4
23253;BME280;11795;47.054;15.408;2023-02-12T04:50:00;98920;;;0.6;70.4
23253;BME280;11795;47.054;15.408;2023-02-12T04:52:00;98930;;;0.7;69.9
23253;BME280;11795;47.054;15.408;2023-02-12T04:54:00;98930;;;0.6;70.4
23253;BME280;11795;47.054;15.408;2023-02-12T04:56:00;98940;;;0.8;69.8
23253;BME280;11795;47.054;15.408;2023-02-12T04:58:00;98940;;;0.7;70.0
23253;BME280;11795;47.054;15.408;2023-02-12T05:00:00;98950;;;0.6;70.2
23253;BME280;11795;47.054;15.408;2023-02-12T05:02:01;98950;;;0.6;70.1
23253;BME280;11795;47.054;15.408;2023-02-12T05:04:00;98960;;;0.5;70.6
23253;BME280;11795;47.054;15.408;2023-02-12T05:06:02;98960;;;0.7;70.3
23253;BME280;11795;47.054;15.408;2023-02-12T05:08:00;98960;;;0.5;70.6
23253;BME280;11795;47.054;15.408;2023-02-12T05:10:00;98960;;;0.5;70.9
23253;BME280;11795;47.054;15.408;2023-02-12T05:12:00;98960;;;0.6;70.4
23253;BME280;11795;47.054;15.408;2023-02-12T05:14:00;98960;;;0.5;70.7
23253;BME280;11795;47.054;15.408;2023-02-12T05:16:03;98960;;;0.7;70.2
23253;BME280;11795;47.054;15.408;2023-02-12T05:18:00;98960;;;0.6;70.4
23253;BME280;11795;47.054;15.408;2023-02-12T05:20:00;98970;;;0.5;70.6
23253;BME280;11795;47.054;15.408;2023-02-12T05:22:00;98970;;;0.6;70.1
23253;BME280;11795;47.054;15.408;2023-02-12T05:24:00;98970;;;0.6;70.4
23253;BME280;11795;47.054;15.408;2023-02-12T05:26:02;98980;;;0.8;69.7
23253;BME280;11795;47.054;15.408;2023-02-12T05:28:00;98980;;;0.5;70.2
23253;BME280;11795;47.054;15.408;2023-02-12T05:30:01;98990;;;0.4;70.7
23253;BME280;11795;47.054;15.408;2023-02-12T05:32:00;98990;;;0.5;70.3
23253;BME280;11795;47.054;15.408;2023-02-12T05:34:00;98980;;;0.4;70.8
23253;BME280;11795;47.054;15.408;2023-02-12T05:36:03;98990;;;0.6;70.4
23253;BME280;11795;47.054;15.408;2023-02-12T05:38:00;98990;;;0.5;70.8
23253;BME280;11795;47.054;15.408;2023-02-12T05:40:00;99000;;;0.4;71.1
23253;BME280;11795;47.054;15.408;2023-02-12T05:42:00;98990;;;0.6;70.5
23253;BME280;11795;47.054;15.408;2023-02-12T05:44:00;98990;;;0.5;70.9
23253;BME280;11795;47.054;15.408;2023-02-12T05:46:01;99000;;;0.7;70.4
23253;BME280;11795;47.054;15.408;2023-02-12T05:48:01;99010;;;0.6;70.8
23253;BME280;11795;47.054;15.408;2023-02-12T05:50:00;99000;;;0.6;70.8
23253;BME280;11795;47.054;15.408;2023-02-12T05:52:00;99010;;;0.7;70.5
23253;BME280;11795;47.054;15.408;2023-02-12T05:54:02;99010;;;0.6;71.4
23253;BME280;11795;47.054;15.408;2023-02-12T05:56:09;99020;;;0.7;71.1
23253;BME280;11795;47.054;15.408;2023-02-12T05:58:00;99030;;;0.6;71.6
23253;BME280;11795;47.054;15.408;2023-02-12T06:00:01;99040;;;0.5;72.2
23253;BME280;11795;47.054;15.408;2023-02-12T06:02:00;99040;;;0.6;71.9
23253;BME280;11795;47.054;15.408;2023-02-12T06:04:01;99040;;;0.6;72.0
23253;BME280;11795;47.054;15.408;2023-02-12T06:06:00;99040;;;0.7;71.6
23253;BME280;11795;47.054;15.408;2023-02-12T06:08:00;99040;;;0.6;71.6
23253;BME280;11795;47.054;15.408;2023-02-12T06:10:00;99050;;;0.6;71.8
23253;BME280;11795;47.054;15.408;2023-02-12T06:12:00;99050;;;0.7;71.2
23253;BME280;11795;47.054;15.408;2023-02-12T06:14:01;99050;;;0.6;71.6
23253;BME280;11795;47.054;15.408;2023-02-12T06:16:01;99050;;;0.8;71.2
23253;BME280;11795;47.054;15.408;2023-02-12T06:18:00;99060;;;0.6;71.5
23253;BME280;11795;47.054;15.408;2023-02-12T06:20:00;99070;;;0.6;72.0
23253;BME280;11795;47.054;15.408;2023-02-12T06:22:00;99060;;;0.7;71.2
23253;BME280;11795;47.054;15.408;2023-02-12T06:24:00;99060;;;0.6;71.6
23253;BME280;11795;47.054;15.408;2023-02-12T06:26:00;99070;;;0.8;71.1
23253;BME280;11795;47.054;15.408;2023-02-12T06:28:00;99080;;;0.7;71.3
23253;BME280;11795;47.054;15.408;2023-02-12T06:30:00;99080;;;0.6;71.6
23253;BME280;11795;47.054;15.408;2023-02-12T06:32:00;99080;;;0.7;71.2
23253;BME280;11795;47.054;15.408;2023-02-12T06:34:02;99090;;;0.7;71.5
23253;BME280;11795;47.054;15.408;2023-02-12T06:36:01;99090;;;0.9;71.0
23253;BME280;11795;47.054;15.408;2023-02-12T06:38:00;99090;;;0.9;70.7
23253;BME280;11795;47.054;15.408;2023-02-12T06:40:00;99090;;;0.8;71.0
23253;BME280;11795;47.054;15.408;2023-02-12T06:42:00;99090;;;0.9;70.6
23253;BME280;11795;47.054;15.408;2023-02-12T06:44:00;99090;;;0.8;71.0
23253;BME280;11795;47.054;15.408;2023-02-12T06:46:01;99090;;;1.0;70.6
23253;BME280;11795;47.054;15.408;2023-02-12T06:48:00;99100;;;0.9;70.8
23253;BME280;11795;47.054;15.408;2023-02-12T06:50:00;99100;;;0.9;71.0
23253;BME280;11795;47.054;15.408;2023-02-12T06:52:00;99100;;;1.1;70.4
23253;BME280;11795;47.054;15.408;2023-02-12T06:54:00;99110;;;1.0;70.7
23253;BME280;11795;47.054;15.408;2023-02-12T06:56:01;99120;;;1.3;70.1
23253;BME280;11795;47.054;15.408;2023-02-12T06:58:00;99120;;;1.2;70.2
23253;BME280;11795;47.054;15.408;2023-02-12T07:00:00;99120;;;1.2;70.4
23253;BME280;11795;47.054;15.408;2023-02-12T07:02:00;99120;;;1.3;70.1
23253;BME280;11795;47.054;15.408;2023-02-12T07:04:02;99120;;;1.2;70.5
23253;BME280;11795;47.054;15.408;2023-02-12T07:06:02;99120;;;1.5;69.9
23253;BME280;11795;47.054;15.408;2023-02-12T07:08:00;99120;;;1.4;70.0
23253;BME280;11795;47.054;15.408;2023-02-12T07:10:00;99120;;;1.3;70.2
23253;BME280;11795;47.054;15.408;2023-02-12T07:12:00;99120;;;1.5;69.7
23253;BME280;11795;47.054;15.408;2023-02-12T07:14:00;99130;;;1.4;69.9
23253;BME280;11795;47.054;15.408;2023-02-12T07:16:04;99130;;;1.7;69.4
23253;BME280;11795;47.054;15.408;2023-02-12T07:18:00;99130;;;1.6;69.5
23253;BME280;11795;47.054;15.408;2023-02-12T07:20:00;99130;;;1.6;69.8
23253;BME280;11795;47.054;15.408;2023-02-12T07:22:00;99130;;;1.8;69.3
23253;BME280;11795;47.054;15.408;2023-02-12T07:24:00;99130;;;1.8;69.5
23253;BME280;11795;47.054;15.408;2023-02-12T07:26:03;99130;;;2.0;69.0
23253;BME280;11795;47.054;15.408;2023-02-12T07:28:00;99140;;;2.0;69.0
23253;BME280;11795;47.054;15.408;2023-02-12T07:30:00;99140;;;2.0;69.0
23253;BME280;11795;47.054;15.408;2023-02-12T07:32:00;99130;;;2.1;68.6
23253;BME280;11795;47.054;15.408;2023-02-12T07:34:00;99140;;;2.2;68.5
23253;BME280;11795;47.054;15.408;2023-02-12T07:36:00;99140;;;2.3;68.3
23253;BME280;11795;47.054;15.408;2023-02-12T07:38:00;99130;;;2.2;68.7
23253;BME280;11795;47.054;15.408;2023-02-12T07:40:01;99130;;;2.3;68.9
23253;BME280;11795;47.054;15.408;2023-02-12T07:42:00;99130;;;2.5;68.2
23253;BME280;11795;47.054;15.408;2023-02-12T07:44:02;99130;;;2.5;68.5
23253;BME280;11795;47.054;15.408;2023-02-12T07:46:06;99130;;;2.8;67.8
23253;BME280;11795;47.054;15.408;2023-02-12T07:48:00;99120;;;2.7;67.9
23253;BME280;11795;47.054;15.408;2023-02-12T07:50:00;99130;;;2.8;67.8
23253;BME280;11795;47.054;15.408;2023-02-12T07:52:00;99120;;;3.0;66.9
23253;BME280;11795;47.054;15.408;2023-02-12T07:54:00;99130;;;3.0;67.0
23253;BME280;11795;47.054;15.408;2023-02-12T07:56:10;99130;;;3.3;66.4
23253;BME280;11795;47.054;15.408;2023-02-12T07:58:00;99130;;;3.4;65.9
23253;BME280;11795;47.054;15.408;2023-02-12T08:00:00;99120;;;3.6;65.7
23253;BME280;11795;47.054;15.408;2023-02-12T08:02:00;99120;;;4.0;63.8
23253;BME280;11795;47.054;15.408;2023-02-12T08:04:02;99130;;;4.2;63.6
23253;BME280;11795;47.054;15.408;2023-02-12T08:06:06;99130;;;4.6;62.4
23253;BME280;11795;47.054;15.408;2023-02-12T08:08:00;99130;;;4.6;61.6
23253;BME280;11795;47.054;15.408;2023-02-12T08:10:00;99140;;;4.8;61.5
23253;BME280;11795;47.054;15.408;2023-02-12T08:12:00;99130;;;5.3;59.7
23253;BME280;11795;47.054;15.408;2023-02-12T08:14:00;99130;;;5.4;59.0
23253;BME280;11795;47.054;15.408;2023-02-12T08:16:00;99130;;;5.6;58.2
23253;BME280;11795;47.054;15.408;2023-02-12T08:18:00;99130;;;5.6;57.8
23253;BME280;11795;47.054;15.408;2023-02-12T08:20:00;99130;;;5.8;57.2
23253;BME280;11795;47.054;15.408;2023-02-12T08:22:02;99130;;;6.7;57.0
23253;BME280;11795;47.054;15.408;2023-02-12T08:24:00;99130;;;7.7;55.6
23253;BME280;11795;47.054;15.408;2023-02-12T08:26:07;99130;;;8.5;51.6
23253;BME280;11795;47.054;15.408;2023-02-12T08:28:00;99130;;;8.5;49.0
23253;BME280;11795;47.054;15.408;2023-02-12T08:30:00;99130;;;9.0;49.6
23253;BME280;11795;47.054;15.408;2023-02-12T08:32:02;99120;;;9.6;48.0
23253;BME280;11795;47.054;15.408;2023-02-12T08:34:00;99120;;;10.0;46.7
23253;BME280;11795;47.054;15.408;2023-02-12T08:36:01;99120;;;10.2;45.9
23253;BME280;11795;47.054;15.408;2023-02-12T08:38:00;99120;;;10.3;45.7
23253;BME280;11795;47.054;15.408;2023-02-12T08:40:00;99110;;;10.6;44.6
23253;BME280;11795;47.054;15.408;2023-02-12T08:42:00;99110;;;11.0;44.5
23253;BME280;11795;47.054;15.408;2023-02-12T08:44:02;99100;;;11.3;43.5
23253;BME280;11795;47.054;15.408;2023-02-12T08:46:02;99100;;;11.4;43.0
23253;BME280;11795;47.054;15.408;2023-02-12T08:48:01;99110;;;11.4;43.0
23253;BME280;11795;47.054;15.408;2023-02-12T08:50:00;99110;;;11.2;42.5
23253;BME280;11795;47.054;15.408;2023-02-12T08:52:01;99110;;;11.1;42.8
23253;BME280;11795;47.054;15.408;2023-02-12T08:54:02;99110;;;11.1;42.7
23253;BME280;11795;47.054;15.408;2023-02-12T08:56:00;99120;;;10.7;42.6
23253;BME280;11795;47.054;15.408;2023-02-12T08:58:01;99120;;;10.2;43.9
23253;BME280;11795;47.054;15.408;2023-02-12T09:00:00;99130;;;9.9;44.2
23253;BME280;11795;47.054;15.408;2023-02-12T09:02:01;99130;;;9.9;44.8
23253;BME280;11795;47.054;15.408;2023-02-12T09:04:00;99140;;;9.8;44.8
23253;BME280;11795;47.054;15.408;2023-02-12T09:06:01;99140;;;10.2;44.9
23253;BME280;11795;47.054;15.408;2023-02-12T09:08:00;99140;;;10.8;44.2
23253;BME280;11795;47.054;15.408;2023-02-12T09:10:00;99150;;;11.3;43.0
23253;BME280;11795;47.054;15.408;2023-02-12T09:12:00;99140;;;11.5;42.6
23253;BME280;11795;47.054;15.408;2023-02-12T09:14:02;99140;;;11.9;41.8
23253;BME280;11795;47.054;15.408;2023-02-12T09:16:02;99130;;;12.1;40.6
23253;BME280;11795;47.054;15.408;2023-02-12T09:18:03;99130;;;12.0;40.5
23253;BME280;11795;47.054;15.408;2023-02-12T09:20:01;99140;;;12.2;41.2
23253;BME280;11795;47.054;15.408;2023-02-12T09:22:00;99140;;;12.7;40.2
23253;BME280;11795;47.054;15.408;2023-02-12T09:24:00;99150;;;12.9;39.3
23253;BME280;11795;47.054;15.408;2023-02-12T09:26:03;99150;;;13.1;38.4
23253;BME280;11795;47.054;15.408;2023-02-12T09:28:01;99150;;;13.1;37.9
23253;BME280;11795;47.054;15.408;2023-02-12T09:30:00;99150;;;13.2;38.4
23253;BME280;11795;47.054;15.408;2023-02-12T09:32:03;99150;;;13.5;37.9
23253;BME280;11795;47.054;15.408;2023-02-12T09:34:03;99150;;;13.6;37.4
23253;BME280;11795;47.054;15.408;2023-02-12T09:36:01;99160;;;13.5;38.5
23253;BME280;11795;47.054;15.408;2023-02-12T09:38:00;99170;;;13.1;38.4
23253;BME280;11795;47.054;15.408;2023-02-12T09:40:00;99170;;;12.5;39.5
23253;BME280;11795;47.054;15.408;2023-02-12T09:42:12;99170;;;12.1;40.1
23253;BME280;11795;47.054;15.408;2023-02-12T09:44:06;99170;;;11.8;41.2
23253;BME280;11795;47.054;15.408;2023-02-12T09:46:07;99180;;;11.5;41.7
23253;BME280;11795;47.054;15.408;2023-02-12T09:48:12;99170;;;11.4;41.8
23253;BME280;11795;47.054;15.408;2023-02-12T09:50:09;99170;;;11.4;42.3
23253;BME280;11795;47.054;15.408;2023-02-12T09:52:00;99180;;;11.5;41.6
23253;BME280;11795;47.054;15.408;2023-02-12T09:54:04;99180;;;11.6;42.3
23253;BME280;11795;47.054;15.408;2023-02-12T09:56:00;99180;;;11.8;41.5
23253;BME280;11795;47.054;15.408;2023-02-12T09:58:03;99190;;;11.6;41.5
23253;BME280;11795;47.054;15.408;2023-02-12T10:00:04;99180;;;11.7;42.1
23253;BME280;11795;47.054;15.408;2023-02-12T10:02:00;99180;;;12.0;40.6
23253;BME280;11795;47.054;15.408;2023-02-12T10:04:01;99180;;;11.9;40.2
23253;BME280;11795;47.054;15.408;2023-02-12T10:06:03;99180;;;12.1;40.6
23253;BME280;11795;47.054;15.408;2023-02-12T10:08:12;99180;;;12.3;40.4
23253;BME280;11795;47.054;15.408;2023-02-12T10:10:12;99180;;;12.6;39.8
23253;BME280;11795;47.054;15.408;2023-02-12T10:12:07;99180;;;12.9;38.5
23253;BME280;11795;47.054;15.408;2023-02-12T10:14:09;99180;;;13.0;38.3
23253;BME280;11795;47.054;15.408;2023-02-12T10:16:09;99170;;;13.2;37.8
23253;BME280;11795;47.054;15.408;2023-02-12T10:18:14;99180;;;13.3;37.9
23253;BME280;11795;47.054;15.408;2023-02-12T10:22:07;99180;;;13.6;37.2
23253;BME280;11795;47.054;15.408;2023-02-12T10:24:12;99180;;;13.7;37.7
23253;BME280;11795;47.054;15.408;2023-02-12T10:26:05;99170;;;14.1;37.5
23253;BME280;11795;47.054;15.408;2023-02-12T10:28:08;99160;;;14.3;37.1
23253;BME280;11795;47.054;15.408;2023-02-12T10:30:03;99160;;;14.4;36.3
23253;BME280;11795;47.054;15.408;2023-02-12T10:32:04;99160;;;14.5;35.5
23253;BME280;11795;47.054;15.408;2023-02-12T10:34:13;99160;;;14.8;36.1
23253;BME280;11795;47.054;15.408;2023-02-12T10:36:03;99160;;;15.1;35.7
23253;BME280;11795;47.054;15.408;2023-02-12T10:38:05;99160;;;15.3;34.7
23253;BME280;11795;47.054;15.408;2023-02-12T10:40:05;99160;;;15.4;34.1
23253;BME280;11795;47.054;15.408;2023-02-12T10:42:04;99160;;;15.4;34.6
23253;BME280;11795;47.054;15.408;2023-02-12T10:44:00;99160;;;15.3;33.9
23253;BME280;11795;47.054;15.408;2023-02-12T10:46:00;99150;;;15.2;33.7
23253;BME280;11795;47.054;15.408;2023-02-12T10:48:05;99150;;;15.2;34.0
23253;BME280;11795;47.054;15.408;2023-02-12T10:50:02;99150;;;15.4;34.8
23253;BME280;11795;47.054;15.408;2023-02-12T10:52:09;99150;;;15.5;33.0
23253;BME280;11795;47.054;15.408;2023-02-12T10:56:11;99150;;;15.2;33.9
23253;BME280;11795;47.054;15.408;2023-02-12T10:58:02;99150;;;14.9;33.5
23253;BME280;11795;47.054;15.408;2023-02-12T11:00:14;99150;;;14.8;34.2
23253;BME280;11795;47.054;15.408;2023-02-12T11:02:01;99150;;;14.9;34.3
23253;BME280;11795;47.054;15.408;2023-02-12T11:04:18;99150;;;14.1;34.0
23253;BME280;11795;47.054;15.408;2023-02-12T11:06:11;99150;;;13.7;35.1
23253;BME280;11795;47.054;15.408;2023-02-12T11:08:00;99160;;;13.5;35.2
23253;BME280;11795;47.054;15.408;2023-02-12T11:10:00;99160;;;13.4;34.6
23253;BME280;11795;47.054;15.408;2023-02-12T11:12:01;99160;;;13.2;35.4
23253;BME280;11795;47.054;15.408;2023-02-12T11:14:03;99150;;;13.3;35.7
23253;BME280;11795;47.054;15.408;2023-02-12T11:16:01;99150;;;13.5;35.4
23253;BME280;11795;47.054;15.408;2023-02-12T11:18:02;99150;;;13.4;35.5
23253;BME280;11795;47.054;15.408;2023-02-12T11:20:07;99140;;;13.4;35.6
23253;BME280;11795;47.054;15.408;2023-02-12T11:22:06;99150;;;13.4;35.8
23253;BME280;11795;47.054;15.408;2023-02-12T11:26:04;99140;;;13.7;36.4
23253;BME280;11795;47.054;15.408;2023-02-12T11:28:05;99140;;;13.8;35.6
23253;BME280;11795;47.054;15.408;2023-02-12T11:30:14;99140;;;13.5;36.3
23253;BME280;11795;47.054;15.408;2023-02-12T11:32:04;99130;;;13.6;36.5